createdAt,value
2022-08-19T00:00:20.129Z,9.02
2022-08-19T00:01:01.845Z,9.55
2022-08-19T00:01:45.629Z,9.70
2022-08-19T00:02:35.152Z,9.05
2022-08-19T00:03:17.237Z,9.27
2022-08-19T00:04:00.421Z,9.20
2022-08-19T00:04:42.184Z,9.80
2022-08-19T00:05:24.060Z,8.50
2022-08-19T00:06:05.941Z,9.18
2022-08-19T00:06:48.727Z,8.00
2022-08-19T00:07:30.506Z,8.32
2022-08-19T00:08:12.299Z,8.67
2022-08-19T00:08:54.089Z,8.82
2022-08-19T00:09:35.881Z,9.07
2022-08-19T00:10:18.453Z,11.70
2022-08-19T00:11:00.173Z,9.18
2022-08-19T00:11:42.423Z,8.55
2022-08-19T00:12:24.189Z,8.75
2022-08-19T00:13:05.979Z,8.18
2022-08-19T00:13:49.297Z,8.20
2022-08-19T00:14:32.519Z,8.55
2022-08-19T00:15:17.666Z,8.40
2022-08-19T00:16:00.603Z,9.60
2022-08-19T00:16:45.003Z,9.75
2022-08-19T00:17:27.001Z,9.27
2022-08-19T00:18:08.684Z,8.45
2022-08-19T00:18:50.420Z,10.00
2022-08-19T00:19:32.206Z,8.55
2022-08-19T00:20:18.508Z,8.52
2022-08-19T00:21:00.484Z,9.40
2022-08-19T00:21:42.550Z,9.52
2022-08-19T00:22:24.257Z,9.35
2022-08-19T00:23:05.947Z,9.35
2022-08-19T00:23:48.063Z,9.18
2022-08-19T00:24:30.289Z,9.50
2022-08-19T00:25:12.840Z,9.15
2022-08-19T00:25:57.575Z,8.82
2022-08-19T00:26:40.100Z,9.90
2022-08-19T00:27:25.927Z,10.90
2022-08-19T00:28:08.867Z,11.18
2022-08-19T00:28:50.570Z,9.93
2022-08-19T00:29:32.313Z,8.77
2022-08-19T00:30:14.253Z,8.88
2022-08-19T00:30:56.622Z,9.23
2022-08-19T00:31:38.572Z,9.10
2022-08-19T00:32:21.233Z,9.10
2022-08-19T00:33:03.234Z,9.07
2022-08-19T00:33:45.219Z,9.50
2022-08-19T00:34:31.079Z,8.80
2022-08-19T00:35:12.877Z,9.90
2022-08-19T00:35:56.437Z,9.60
2022-08-19T00:36:38.561Z,8.55
2022-08-19T00:37:24.016Z,7.85
2022-08-19T00:38:07.286Z,7.70
2022-08-19T00:38:49.466Z,8.93
2022-08-19T00:39:31.364Z,9.35
2022-08-19T00:40:14.229Z,10.15
2022-08-19T00:40:57.170Z,11.07
2022-08-19T00:41:40.902Z,12.40
2022-08-19T00:42:23.820Z,11.00
2022-08-19T00:43:14.019Z,10.70
2022-08-19T00:44:11.225Z,9.00
2022-08-19T00:44:52.961Z,8.63
2022-08-19T00:45:36.780Z,9.70
2022-08-19T00:46:19.524Z,9.80
2022-08-19T00:47:01.265Z,10.48
2022-08-19T00:47:42.975Z,10.20
2022-08-19T00:48:24.699Z,9.57
2022-08-19T00:49:33.668Z,9.15
2022-08-19T00:50:19.021Z,9.88
2022-08-19T00:51:02.089Z,11.50
2022-08-19T00:51:47.628Z,10.23
2022-08-19T00:52:33.457Z,9.25
2022-08-19T00:53:19.858Z,8.90
2022-08-19T00:54:02.596Z,10.82
2022-08-19T00:54:47.763Z,12.20
2022-08-19T00:55:33.327Z,14.23
2022-08-19T00:56:16.342Z,10.53
2022-08-19T00:56:59.206Z,9.48
2022-08-19T00:57:46.764Z,9.38
2022-08-19T00:58:33.401Z,10.27
2022-08-19T00:59:17.079Z,11.20
2022-08-19T01:00:21.387Z,9.30
2022-08-19T01:01:05.130Z,9.73
2022-08-19T01:01:48.028Z,10.65
2022-08-19T01:02:31.964Z,11.15
2022-08-19T01:03:19.192Z,10.57
2022-08-19T01:04:01.027Z,9.60
2022-08-19T01:04:42.788Z,9.32
2022-08-19T01:05:30.039Z,9.40
2022-08-19T01:06:11.937Z,10.03
2022-08-19T01:06:53.713Z,10.27
2022-08-19T01:07:38.528Z,9.98
2022-08-19T01:08:21.013Z,10.93
2022-08-19T01:09:03.065Z,9.05
2022-08-19T01:09:44.959Z,9.48
2022-08-19T01:10:33.550Z,10.38
2022-08-19T01:11:18.451Z,9.10
2022-08-19T01:12:00.115Z,10.85
2022-08-19T01:12:42.068Z,10.93
2022-08-19T01:13:27.437Z,8.98
2022-08-19T01:14:10.751Z,9.30
2022-08-19T01:14:53.332Z,10.27
2022-08-19T01:15:53.089Z,9.85
2022-08-19T01:16:36.230Z,10.02
2022-08-19T01:17:18.745Z,12.90
2022-08-19T01:18:10.309Z,10.30
2022-08-19T01:18:52.375Z,9.40
2022-08-19T01:19:43.612Z,9.60
2022-08-19T01:20:26.351Z,10.60
2022-08-19T01:21:17.833Z,10.35
2022-08-19T01:22:33.248Z,9.80
2022-08-19T01:23:16.478Z,10.38
2022-08-19T01:23:58.309Z,9.60
2022-08-19T01:24:45.215Z,9.52
2022-08-19T01:25:45.958Z,11.65
2022-08-19T01:26:28.868Z,12.00
2022-08-19T01:27:13.046Z,10.35
2022-08-19T01:27:54.958Z,9.73
2022-08-19T01:28:40.182Z,9.02
2022-08-19T01:29:24.030Z,10.52
2022-08-19T01:30:08.500Z,10.23
2022-08-19T01:30:51.159Z,9.90
2022-08-19T01:31:33.321Z,9.35
2022-08-19T01:32:21.134Z,11.73
2022-08-19T01:33:15.611Z,11.43
2022-08-19T01:33:58.495Z,10.20
2022-08-19T01:34:40.397Z,11.32
2022-08-19T01:35:26.396Z,10.15
2022-08-19T01:36:15.059Z,13.02
2022-08-19T01:36:56.769Z,12.15
2022-08-19T01:37:57.871Z,11.48
2022-08-19T01:38:44.125Z,10.05
2022-08-19T01:39:27.053Z,10.27
2022-08-19T01:40:09.767Z,9.63
2022-08-19T01:40:52.438Z,10.10
2022-08-19T01:41:34.688Z,9.90
2022-08-19T01:42:16.372Z,9.73
2022-08-19T01:42:58.673Z,10.57
2022-08-19T01:44:09.746Z,13.82
2022-08-19T01:44:42.877Z,12.57
2022-08-19T01:45:28.734Z,10.50
2022-08-19T01:46:10.511Z,10.95
2022-08-19T01:46:52.683Z,10.75
2022-08-19T01:47:38.745Z,12.48
2022-08-19T01:48:20.453Z,11.30
2022-08-19T01:49:04.162Z,10.50
2022-08-19T01:49:45.866Z,10.70
2022-08-19T01:50:28.424Z,13.43
2022-08-19T01:51:12.008Z,11.82
2022-08-19T01:51:55.080Z,14.45
2022-08-19T01:52:39.334Z,12.07
2022-08-19T01:53:21.043Z,13.70
2022-08-19T01:54:04.892Z,12.27
2022-08-19T01:54:46.626Z,12.20
2022-08-19T01:55:28.823Z,13.40
2022-08-19T01:56:10.560Z,12.57
2022-08-19T01:56:56.434Z,10.77
2022-08-19T01:57:40.032Z,10.40
2022-08-19T01:58:29.056Z,10.90
2022-08-19T01:59:17.113Z,9.85
2022-08-19T01:59:58.897Z,9.88
2022-08-19T02:00:40.910Z,10.95
2022-08-19T02:01:22.810Z,12.10
2022-08-19T02:02:08.386Z,12.63
2022-08-19T02:02:50.314Z,10.93
2022-08-19T02:03:32.047Z,10.65
2022-08-19T02:04:13.799Z,10.68
2022-08-19T02:04:56.205Z,10.27
2022-08-19T02:05:39.014Z,10.38
2022-08-19T02:06:20.873Z,11.13
2022-08-19T02:07:09.466Z,11.30
2022-08-19T02:07:51.524Z,10.93
2022-08-19T02:08:36.374Z,11.00
2022-08-19T02:09:18.065Z,11.40
2022-08-19T02:09:59.740Z,10.50
2022-08-19T02:10:45.063Z,10.35
2022-08-19T02:11:32.353Z,13.15
2022-08-19T02:12:14.117Z,10.48
2022-08-19T02:12:55.801Z,12.73
2022-08-19T02:13:38.070Z,12.88
2022-08-19T02:14:19.853Z,10.65
2022-08-19T02:15:02.814Z,11.70
2022-08-19T02:15:44.526Z,11.65
2022-08-19T02:16:26.233Z,12.15
2022-08-19T02:17:07.984Z,10.75
2022-08-19T02:17:49.778Z,10.60
2022-08-19T02:18:31.750Z,10.38
2022-08-19T02:19:13.872Z,13.60
2022-08-19T02:19:56.554Z,10.55
2022-08-19T02:20:39.615Z,10.82
2022-08-19T02:21:23.712Z,12.27
2022-08-19T02:22:06.406Z,11.43
2022-08-19T02:22:48.173Z,11.15
2022-08-19T02:23:29.861Z,11.25
2022-08-19T02:24:11.543Z,13.35
2022-08-19T02:24:54.212Z,11.00
2022-08-19T02:25:36.023Z,12.55
2022-08-19T02:26:19.130Z,11.40
2022-08-19T02:27:00.859Z,11.75
2022-08-19T02:27:44.009Z,9.55
2022-08-19T02:28:25.719Z,9.80
2022-08-19T02:29:07.425Z,11.38
2022-08-19T02:29:50.397Z,12.55
2022-08-19T02:30:32.111Z,10.85
2022-08-19T02:31:18.027Z,11.15
2022-08-19T02:32:00.189Z,12.55
2022-08-19T02:32:44.754Z,12.38
2022-08-19T02:33:36.110Z,10.65
2022-08-19T02:34:18.234Z,10.85
2022-08-19T02:35:00.190Z,11.75
2022-08-19T02:35:44.281Z,10.63
2022-08-19T02:36:26.710Z,12.05
2022-08-19T02:37:28.545Z,10.52
2022-08-19T02:38:28.885Z,12.02
2022-08-19T02:39:11.214Z,11.90
2022-08-19T02:39:52.973Z,11.70
2022-08-19T02:40:35.304Z,12.93
2022-08-19T02:41:22.663Z,13.57
2022-08-19T02:42:08.423Z,13.18
2022-08-19T02:42:50.413Z,12.50
2022-08-19T02:43:33.792Z,12.25
2022-08-19T02:44:30.136Z,11.40
2022-08-19T02:45:14.973Z,13.30
2022-08-19T02:45:57.214Z,11.98
2022-08-19T02:46:39.388Z,13.07
2022-08-19T02:47:21.162Z,10.38
2022-08-19T02:48:03.590Z,10.05
2022-08-19T02:48:57.118Z,10.68
2022-08-19T02:49:38.878Z,11.88
2022-08-19T02:50:20.725Z,12.50
2022-08-19T02:51:02.521Z,11.60
2022-08-19T02:51:46.718Z,12.35
2022-08-19T02:52:29.138Z,11.50
2022-08-19T02:53:11.627Z,11.00
2022-08-19T02:53:55.167Z,13.65
2022-08-19T02:54:37.270Z,12.35
2022-08-19T02:55:19.685Z,11.68
2022-08-19T02:56:01.443Z,11.75
2022-08-19T02:56:45.071Z,11.73
2022-08-19T02:57:27.227Z,11.48
2022-08-19T02:58:09.067Z,10.77
2022-08-19T02:58:51.028Z,11.60
2022-08-19T02:59:34.567Z,11.70
2022-08-19T03:00:17.453Z,12.52
2022-08-19T03:00:59.294Z,11.95
2022-08-19T03:01:42.599Z,11.48
2022-08-19T03:02:25.178Z,12.30
2022-08-19T03:03:06.858Z,12.05
2022-08-19T03:03:48.542Z,11.80
2022-08-19T03:04:30.616Z,13.50
2022-08-19T03:05:12.298Z,12.80
2022-08-19T03:06:09.382Z,11.93
2022-08-19T03:06:51.470Z,12.55
2022-08-19T03:07:33.173Z,10.70
2022-08-19T03:08:15.421Z,13.32
2022-08-19T03:08:59.245Z,13.25
2022-08-19T03:09:40.994Z,13.45
2022-08-19T03:10:22.746Z,15.00
2022-08-19T03:11:04.923Z,12.63
2022-08-19T03:11:46.845Z,14.67
2022-08-19T03:12:31.079Z,14.63
2022-08-19T03:13:18.534Z,13.18
2022-08-19T03:14:01.246Z,11.82
2022-08-19T03:14:42.938Z,12.02
2022-08-19T03:15:24.917Z,12.85
2022-08-19T03:16:06.737Z,13.73
2022-08-19T03:16:50.809Z,13.10
2022-08-19T03:17:32.582Z,13.35
2022-08-19T03:18:15.439Z,12.32
2022-08-19T03:19:00.930Z,11.20
2022-08-19T03:19:43.989Z,11.40
2022-08-19T03:20:26.697Z,11.82
2022-08-19T03:21:12.325Z,13.50
2022-08-19T03:21:54.578Z,14.40
2022-08-19T03:22:36.253Z,12.23
2022-08-19T03:23:18.655Z,14.95
2022-08-19T03:24:03.991Z,12.68
2022-08-19T03:24:45.697Z,12.20
2022-08-19T03:25:27.370Z,13.32
2022-08-19T03:26:16.656Z,12.07
2022-08-19T03:26:59.614Z,11.95
2022-08-19T03:27:41.304Z,11.90
2022-08-19T03:28:23.116Z,12.80
2022-08-19T03:29:05.889Z,11.90
2022-08-19T03:29:47.602Z,11.65
2022-08-19T03:30:31.133Z,12.20
2022-08-19T03:31:41.641Z,11.57
2022-08-19T03:32:32.348Z,13.45
2022-08-19T03:33:18.214Z,13.00
2022-08-19T03:34:15.508Z,11.00
2022-08-19T03:34:57.863Z,12.50
2022-08-19T03:35:39.643Z,14.05
2022-08-19T03:36:24.494Z,11.75
2022-08-19T03:37:10.672Z,12.07
2022-08-19T03:37:53.851Z,13.48
2022-08-19T03:38:41.661Z,11.48
2022-08-19T03:39:24.447Z,11.30
2022-08-19T03:40:06.745Z,12.52
2022-08-19T03:40:48.482Z,12.00
2022-08-19T03:41:44.562Z,11.68
2022-08-19T03:42:38.779Z,11.57
2022-08-19T03:43:29.685Z,11.18
2022-08-19T03:44:16.812Z,12.00
2022-08-19T03:45:00.341Z,12.05
2022-08-19T03:45:42.329Z,11.43
2022-08-19T03:46:27.507Z,11.57
2022-08-19T03:47:09.234Z,11.27
2022-08-19T03:47:51.002Z,12.52
2022-08-19T03:48:34.119Z,13.07
2022-08-19T03:49:18.343Z,12.70
2022-08-19T03:50:00.571Z,13.00
2022-08-19T03:50:42.329Z,12.80
2022-08-19T03:51:33.960Z,11.77
2022-08-19T03:52:15.879Z,13.13
2022-08-19T03:52:57.553Z,12.05
2022-08-19T03:53:39.250Z,13.60
2022-08-19T03:54:23.878Z,13.77
2022-08-19T03:55:06.401Z,13.27
2022-08-19T03:55:48.086Z,15.02
2022-08-19T03:56:30.611Z,14.65
2022-08-19T03:57:12.493Z,13.25
2022-08-19T03:57:58.637Z,12.70
2022-08-19T03:58:41.621Z,13.25
2022-08-19T03:59:30.015Z,13.15
2022-08-19T04:00:14.101Z,13.40
2022-08-19T04:00:57.664Z,13.02
2022-08-19T04:01:39.390Z,12.23
2022-08-19T04:02:21.504Z,18.83
2022-08-19T04:03:03.369Z,20.50
2022-08-19T04:03:47.333Z,12.23
2022-08-19T04:04:29.851Z,13.90
2022-08-19T04:05:15.014Z,12.50
2022-08-19T04:05:56.815Z,12.20
2022-08-19T04:06:40.154Z,12.05
2022-08-19T04:07:22.398Z,12.35
2022-08-19T04:08:04.864Z,11.43
2022-08-19T04:08:48.504Z,12.80
2022-08-19T04:09:30.223Z,13.35
2022-08-19T04:10:12.012Z,14.40
2022-08-19T04:10:56.138Z,13.50
2022-08-19T04:11:45.117Z,13.45
2022-08-19T04:12:26.957Z,13.50
2022-08-19T04:13:09.965Z,13.88
2022-08-19T04:13:53.286Z,13.98
2022-08-19T04:14:35.626Z,13.10
2022-08-19T04:15:17.412Z,12.75
2022-08-19T04:15:59.118Z,12.60
2022-08-19T04:16:41.235Z,12.48
2022-08-19T04:17:23.220Z,15.70
2022-08-19T04:18:08.639Z,13.73
2022-08-19T04:18:50.764Z,12.65
2022-08-19T04:19:33.886Z,12.25
2022-08-19T04:20:15.595Z,12.95
2022-08-19T04:20:57.779Z,15.13
2022-08-19T04:21:39.873Z,14.50
2022-08-19T04:22:21.553Z,13.35
2022-08-19T04:23:03.303Z,13.75
2022-08-19T04:23:45.964Z,14.15
2022-08-19T04:24:28.973Z,13.02
2022-08-19T04:25:11.276Z,13.40
2022-08-19T04:25:52.991Z,14.75
2022-08-19T04:26:37.776Z,13.02
2022-08-19T04:27:19.484Z,13.70
2022-08-19T04:28:01.207Z,15.00
2022-08-19T04:28:44.129Z,13.98
2022-08-19T04:29:27.775Z,15.27
2022-08-19T04:30:10.182Z,13.45
2022-08-19T04:30:54.204Z,14.00
2022-08-19T04:31:38.852Z,13.60
2022-08-19T04:32:20.614Z,15.45
2022-08-19T04:33:02.330Z,16.13
2022-08-19T04:33:44.157Z,14.63
2022-08-19T04:34:29.235Z,14.32
2022-08-19T04:35:16.817Z,14.73
2022-08-19T04:35:59.704Z,13.35
2022-08-19T04:36:43.220Z,12.00
2022-08-19T04:37:25.664Z,13.00
2022-08-19T04:38:07.878Z,12.77
2022-08-19T04:38:50.994Z,14.27
2022-08-19T04:39:51.229Z,13.27
2022-08-19T04:40:51.663Z,14.68
2022-08-19T04:41:52.748Z,15.23
2022-08-19T04:42:40.644Z,13.52
2022-08-19T04:43:22.340Z,15.05
2022-08-19T04:44:04.747Z,15.95
2022-08-19T04:44:46.594Z,15.20
2022-08-19T04:45:28.377Z,14.40
2022-08-19T04:46:39.289Z,13.60
2022-08-19T04:47:19.951Z,14.20
2022-08-19T04:48:27.763Z,14.23
2022-08-19T04:49:10.424Z,13.90
2022-08-19T04:49:54.757Z,15.90
2022-08-19T04:50:36.646Z,15.15
2022-08-19T04:51:18.463Z,13.30
2022-08-19T04:52:00.165Z,14.02
2022-08-19T04:52:43.731Z,15.32
2022-08-19T04:53:27.782Z,20.17
2022-08-19T04:54:09.856Z,16.75
2022-08-19T04:54:51.568Z,16.08
2022-08-19T04:55:37.915Z,16.70
2022-08-19T04:56:22.584Z,16.10
2022-08-19T04:57:07.020Z,15.05
2022-08-19T04:57:48.854Z,13.70
2022-08-19T04:58:30.764Z,14.95
2022-08-19T04:59:12.722Z,16.45
2022-08-19T04:59:57.838Z,15.95
2022-08-19T05:00:40.806Z,16.60
2022-08-19T05:01:26.572Z,15.50
2022-08-19T05:02:10.283Z,16.58
2022-08-19T05:02:52.178Z,17.65
2022-08-19T05:03:34.771Z,19.48
2022-08-19T05:04:18.831Z,20.35
2022-08-19T05:05:04.007Z,16.67
2022-08-19T05:05:49.364Z,18.42
2022-08-19T05:06:33.664Z,18.77
2022-08-19T05:07:15.366Z,19.17
2022-08-19T05:07:57.075Z,21.05
2022-08-19T05:08:44.125Z,23.13
2022-08-19T05:09:25.895Z,19.38
2022-08-19T05:10:08.245Z,19.98
2022-08-19T05:10:51.864Z,20.75
2022-08-19T05:11:37.353Z,20.67
2022-08-19T05:12:20.093Z,21.50
2022-08-19T05:13:01.798Z,21.55
2022-08-19T05:13:45.501Z,22.88
2022-08-19T05:14:27.269Z,22.23
2022-08-19T05:15:09.834Z,21.45
2022-08-19T05:15:56.566Z,22.30
2022-08-19T05:16:38.242Z,23.70
2022-08-19T05:17:29.429Z,26.58
2022-08-19T05:18:31.734Z,26.70
2022-08-19T05:19:31.978Z,28.35
2022-08-19T05:20:33.718Z,29.65
2022-08-19T05:21:36.150Z,30.70
2022-08-19T05:22:33.833Z,33.10
2022-08-19T05:23:21.892Z,33.95
2022-08-19T05:24:09.769Z,35.38
2022-08-19T05:25:11.261Z,35.60
2022-08-19T05:25:53.726Z,34.20
2022-08-19T05:26:36.976Z,33.83
2022-08-19T05:27:18.832Z,34.65
2022-08-19T05:28:00.581Z,35.03
2022-08-19T05:28:42.335Z,33.88
2022-08-19T05:29:26.245Z,35.95
2022-08-19T05:30:13.675Z,37.10
2022-08-19T05:30:56.487Z,34.47
2022-08-19T05:31:42.152Z,36.67
2022-08-19T05:32:24.371Z,36.53
2022-08-19T05:33:06.133Z,35.45
2022-08-19T05:33:47.893Z,34.65
2022-08-19T05:34:29.655Z,35.53
2022-08-19T05:35:12.611Z,33.90
2022-08-19T05:35:54.424Z,33.60
2022-08-19T05:36:40.725Z,34.60
2022-08-19T05:37:23.108Z,35.22
2022-08-19T05:38:05.719Z,33.92
2022-08-19T05:38:48.536Z,34.00
2022-08-19T05:39:33.437Z,35.00
2022-08-19T05:40:15.291Z,39.35
2022-08-19T05:40:57.057Z,37.58
2022-08-19T05:41:47.237Z,37.30
2022-08-19T05:42:29.072Z,36.25
2022-08-19T05:43:10.799Z,34.22
2022-08-19T05:43:52.484Z,33.95
2022-08-19T05:44:37.425Z,33.50
2022-08-19T05:45:19.209Z,36.40
2022-08-19T05:46:00.911Z,36.15
2022-08-19T05:46:47.842Z,35.50
2022-08-19T05:47:29.535Z,38.95
2022-08-19T05:48:12.336Z,32.60
2022-08-19T05:48:57.145Z,33.90
2022-08-19T05:49:39.133Z,34.60
2022-08-19T05:50:21.190Z,35.70
2022-08-19T05:51:09.309Z,34.40
2022-08-19T05:51:51.125Z,34.47
2022-08-19T05:52:33.485Z,39.03
2022-08-19T05:53:17.258Z,36.38
2022-08-19T05:53:59.116Z,35.55
2022-08-19T05:54:42.437Z,34.60
2022-08-19T05:55:24.675Z,35.33
2022-08-19T05:56:12.420Z,34.80
2022-08-19T05:56:54.894Z,37.60
2022-08-19T05:57:36.615Z,35.58
2022-08-19T05:58:18.377Z,39.10
2022-08-19T05:59:09.863Z,35.92
2022-08-19T05:59:57.657Z,37.35
2022-08-19T06:00:41.054Z,34.53
2022-08-19T06:01:22.776Z,37.40
2022-08-19T06:02:06.014Z,37.20
2022-08-19T06:02:47.800Z,35.03
2022-08-19T06:03:29.584Z,35.58
2022-08-19T06:04:11.568Z,35.33
2022-08-19T06:04:53.430Z,33.70
2022-08-19T06:05:51.743Z,33.28
2022-08-19T06:06:35.480Z,35.55
2022-08-19T06:07:17.920Z,34.33
2022-08-19T06:07:59.729Z,34.25
2022-08-19T06:08:43.719Z,33.63
2022-08-19T06:09:25.667Z,34.55
2022-08-19T06:10:10.511Z,33.38
2022-08-19T06:10:52.278Z,32.85
2022-08-19T06:11:37.030Z,32.58
2022-08-19T06:12:18.828Z,34.65
2022-08-19T06:13:00.936Z,35.83
2022-08-19T06:13:42.927Z,34.95
2022-08-19T06:14:30.723Z,36.42
2022-08-19T06:15:15.430Z,33.00
2022-08-19T06:15:57.168Z,32.20
2022-08-19T06:16:40.931Z,34.72
2022-08-19T06:17:25.730Z,34.72
2022-08-19T06:18:07.457Z,34.63
2022-08-19T06:18:57.978Z,36.35
2022-08-19T06:19:41.620Z,34.00
2022-08-19T06:20:52.283Z,34.78
2022-08-19T06:21:28.274Z,37.22
2022-08-19T06:22:11.245Z,34.17
2022-08-19T06:22:53.154Z,36.20
2022-08-19T06:23:35.807Z,36.15
2022-08-19T06:24:21.634Z,39.13
2022-08-19T06:25:04.803Z,37.78
2022-08-19T06:25:46.538Z,36.13
2022-08-19T06:26:28.567Z,37.50
2022-08-19T06:27:10.397Z,37.95
2022-08-19T06:28:14.144Z,35.83
2022-08-19T06:28:53.949Z,36.00
2022-08-19T06:29:36.071Z,36.45
2022-08-19T06:30:18.046Z,34.17
2022-08-19T06:30:59.820Z,35.42
2022-08-19T06:31:45.617Z,34.97
2022-08-19T06:32:27.497Z,37.40
2022-08-19T06:33:09.262Z,37.08
2022-08-19T06:33:51.114Z,36.15
2022-08-19T06:34:35.055Z,34.78
2022-08-19T06:35:16.781Z,35.63
2022-08-19T06:35:58.490Z,34.67
2022-08-19T06:36:44.530Z,34.40
2022-08-19T06:37:26.261Z,34.80
2022-08-19T06:38:08.067Z,36.10
2022-08-19T06:38:49.823Z,37.75
2022-08-19T06:39:36.573Z,36.38
2022-08-19T06:40:18.452Z,34.70
2022-08-19T06:41:07.741Z,35.88
2022-08-19T06:41:55.437Z,34.28
2022-08-19T06:42:44.410Z,36.67
2022-08-19T06:43:40.499Z,34.87
2022-08-19T06:44:27.073Z,36.67
2022-08-19T06:45:09.658Z,36.47
2022-08-19T06:45:53.486Z,36.90
2022-08-19T06:46:37.420Z,36.55
2022-08-19T06:47:23.606Z,36.50
2022-08-19T06:48:08.335Z,35.60
2022-08-19T06:48:50.599Z,32.05
2022-08-19T06:49:32.881Z,34.67
2022-08-19T06:50:15.148Z,33.65
2022-08-19T06:50:57.009Z,33.67
2022-08-19T06:51:42.494Z,32.03
2022-08-19T06:52:25.309Z,33.97
2022-08-19T06:53:07.124Z,33.55
2022-08-19T06:54:37.826Z,35.45
2022-08-19T06:55:38.499Z,37.50
2022-08-19T06:56:25.833Z,35.15
2022-08-19T06:57:08.335Z,35.72
2022-08-19T06:57:51.869Z,35.60
2022-08-19T06:58:33.901Z,37.65
2022-08-19T06:59:18.728Z,37.28
2022-08-19T07:00:01.078Z,36.30
2022-08-19T07:00:42.854Z,35.10
2022-08-19T07:01:24.927Z,34.15
2022-08-19T07:02:07.585Z,37.40
2022-08-19T07:02:55.765Z,37.15
2022-08-19T07:03:40.112Z,32.50
2022-08-19T07:04:30.740Z,33.17
2022-08-19T07:05:12.509Z,38.60
2022-08-19T07:05:55.301Z,32.83
2022-08-19T07:06:45.072Z,34.85
2022-08-19T07:07:36.895Z,37.95
2022-08-19T07:08:18.743Z,38.65
2022-08-19T07:09:00.700Z,31.98
2022-08-19T07:09:45.026Z,35.17
2022-08-19T07:10:37.478Z,37.08
2022-08-19T07:11:24.947Z,38.55
2022-08-19T07:12:10.368Z,40.03
2022-08-19T07:12:52.719Z,37.13
2022-08-19T07:13:37.753Z,36.67
2022-08-19T07:14:26.189Z,36.25
2022-08-19T07:15:09.722Z,35.90
2022-08-19T07:15:51.631Z,39.20
2022-08-19T07:16:33.404Z,37.63
2022-08-19T07:17:15.510Z,39.08
2022-08-19T07:17:57.287Z,39.00
2022-08-19T07:18:39.995Z,38.22
2022-08-19T07:19:28.187Z,38.33
2022-08-19T07:20:11.293Z,38.35
2022-08-19T07:21:13.287Z,36.67
2022-08-19T07:21:56.238Z,36.67
2022-08-19T07:22:39.675Z,38.95
2022-08-19T07:23:21.404Z,38.10
2022-08-19T07:24:07.236Z,39.47
2022-08-19T07:24:51.573Z,42.70
2022-08-19T07:25:33.493Z,38.28
2022-08-19T07:26:20.218Z,38.13
2022-08-19T07:27:15.622Z,38.45
2022-08-19T07:27:57.565Z,42.35
2022-08-19T07:28:40.152Z,39.58
2022-08-19T07:29:36.667Z,42.30
2022-08-19T07:30:19.700Z,40.03
2022-08-19T07:31:02.790Z,40.95
2022-08-19T07:31:44.868Z,42.97
2022-08-19T07:32:29.331Z,41.80
2022-08-19T07:33:11.097Z,39.97
2022-08-19T07:33:56.207Z,42.97
2022-08-19T07:34:38.492Z,41.40
2022-08-19T07:35:21.821Z,42.30
2022-08-19T07:36:06.805Z,40.00
2022-08-19T07:36:48.571Z,41.63
2022-08-19T07:37:33.192Z,45.75
2022-08-19T07:38:16.817Z,44.20
2022-08-19T07:38:59.482Z,44.85
2022-08-19T07:39:41.515Z,41.83
2022-08-19T07:40:23.368Z,41.38
2022-08-19T07:41:05.190Z,42.00
2022-08-19T07:41:48.069Z,42.17
2022-08-19T07:42:30.790Z,39.55
2022-08-19T07:43:17.030Z,42.28
2022-08-19T07:44:04.784Z,44.13
2022-08-19T07:44:50.138Z,43.72
2022-08-19T07:45:33.188Z,42.65
2022-08-19T07:46:15.607Z,45.20
2022-08-19T07:46:58.567Z,43.50
2022-08-19T07:47:49.170Z,44.80
2022-08-19T07:48:33.499Z,45.47
2022-08-19T07:49:19.975Z,45.03
2022-08-19T07:50:01.900Z,49.20
2022-08-19T07:50:44.060Z,44.95
2022-08-19T07:51:36.135Z,42.17
2022-08-19T07:52:18.813Z,44.50
2022-08-19T07:53:00.510Z,41.08
2022-08-19T07:53:42.850Z,40.15
2022-08-19T07:54:26.820Z,42.20
2022-08-19T07:55:39.793Z,46.88
2022-08-19T07:56:15.059Z,46.63
2022-08-19T07:56:57.651Z,45.47
2022-08-19T07:57:39.840Z,41.83
2022-08-19T07:58:23.893Z,43.30
2022-08-19T07:59:05.985Z,45.08
2022-08-19T07:59:47.701Z,43.20
2022-08-19T08:00:29.486Z,47.33
2022-08-19T08:01:18.735Z,48.20
2022-08-19T08:02:01.749Z,48.45
2022-08-19T08:02:43.583Z,42.83
2022-08-19T08:03:46.149Z,49.65
2022-08-19T08:04:47.663Z,44.50
2022-08-19T08:05:48.238Z,51.35
2022-08-19T08:06:48.515Z,50.00
2022-08-19T08:07:48.839Z,48.65
2022-08-19T08:08:36.579Z,48.10
2022-08-19T08:09:23.015Z,46.08
2022-08-19T08:10:10.288Z,48.80
2022-08-19T08:11:02.387Z,50.05
2022-08-19T08:12:08.966Z,47.97
2022-08-19T08:13:09.383Z,44.47
2022-08-19T08:14:01.298Z,47.03
2022-08-19T08:14:49.918Z,46.15
2022-08-19T08:15:42.707Z,48.45
2022-08-19T08:16:26.482Z,47.38
2022-08-19T08:17:10.787Z,48.38
2022-08-19T08:17:52.933Z,49.88
2022-08-19T08:18:42.218Z,45.53
2022-08-19T08:19:26.212Z,46.63
2022-08-19T08:20:08.403Z,46.50
2022-08-19T08:20:50.136Z,45.70
2022-08-19T08:21:31.963Z,44.97
2022-08-19T08:22:43.589Z,46.10
2022-08-19T08:23:26.887Z,51.45
2022-08-19T08:24:09.116Z,46.70
2022-08-19T08:24:50.971Z,43.13
2022-08-19T08:25:34.252Z,44.00
2022-08-19T08:26:17.038Z,47.17
2022-08-19T08:27:01.871Z,42.08
2022-08-19T08:27:46.918Z,43.75
2022-08-19T08:28:29.912Z,44.13
2022-08-19T08:29:12.856Z,42.95
2022-08-19T08:29:54.865Z,41.35
2022-08-19T08:30:37.891Z,41.60
2022-08-19T08:31:20.255Z,40.40
2022-08-19T08:32:02.529Z,41.00
2022-08-19T08:32:44.475Z,48.08
2022-08-19T08:33:33.831Z,46.38
2022-08-19T08:34:16.906Z,43.33
2022-08-19T08:34:58.976Z,46.90
2022-08-19T08:35:43.236Z,47.20
2022-08-19T08:36:26.400Z,48.67
2022-08-19T08:37:08.126Z,46.90
2022-08-19T08:37:52.388Z,46.83
2022-08-19T08:38:39.935Z,46.88
2022-08-19T08:39:23.054Z,48.97
2022-08-19T08:40:36.151Z,48.63
2022-08-19T08:41:53.660Z,52.25
2022-08-19T08:42:41.747Z,47.97
2022-08-19T08:43:32.418Z,48.53
2022-08-19T08:44:49.209Z,47.42
2022-08-19T08:45:33.586Z,49.10
2022-08-19T08:46:33.386Z,52.28
2022-08-19T08:47:20.287Z,50.47
2022-08-19T08:48:22.431Z,48.00
2022-08-19T08:49:25.488Z,50.83
2022-08-19T08:50:20.481Z,50.13
2022-08-19T08:51:07.231Z,48.90
2022-08-19T08:52:14.628Z,51.58
2022-08-19T08:52:58.384Z,53.55
2022-08-19T08:53:42.113Z,49.65
2022-08-19T08:54:26.408Z,50.13
2022-08-19T08:55:15.089Z,45.70
2022-08-19T08:55:56.888Z,46.80
2022-08-19T08:56:41.054Z,49.88
2022-08-19T08:57:40.889Z,48.40
2022-08-19T08:58:32.048Z,49.03
2022-08-19T08:59:20.040Z,47.42
2022-08-19T09:00:07.294Z,50.53
2022-08-19T09:00:58.375Z,45.00
2022-08-19T09:01:40.851Z,43.95
2022-08-19T09:02:22.592Z,45.20
2022-08-19T09:03:10.756Z,40.85
2022-08-19T09:03:52.951Z,37.72
2022-08-19T09:04:39.838Z,40.65
2022-08-19T09:05:25.898Z,38.53
2022-08-19T09:06:12.099Z,38.70
2022-08-19T09:07:34.777Z,37.95
2022-08-19T09:08:40.318Z,38.50
2022-08-19T09:09:40.486Z,40.83
2022-08-19T09:10:44.673Z,36.58
2022-08-19T09:11:45.349Z,39.15
2022-08-19T09:12:45.666Z,36.35
2022-08-19T09:13:57.277Z,34.17
2022-08-19T09:14:51.205Z,32.65
2022-08-19T09:15:38.749Z,31.23
2022-08-19T09:16:27.983Z,30.15
2022-08-19T09:17:11.088Z,33.90
2022-08-19T09:17:52.948Z,33.63
2022-08-19T09:18:43.040Z,34.47
2022-08-19T09:19:24.935Z,35.25
2022-08-19T09:20:23.073Z,34.30
2022-08-19T09:21:04.871Z,34.58
2022-08-19T09:21:46.735Z,36.28
2022-08-19T09:22:28.715Z,31.58
2022-08-19T09:23:11.948Z,34.13
2022-08-19T09:23:54.349Z,34.15
2022-08-19T09:24:36.751Z,31.85
2022-08-19T09:25:27.004Z,33.65
2022-08-19T09:26:16.846Z,35.60
2022-08-19T09:26:58.605Z,36.10
2022-08-19T09:27:43.609Z,36.90
2022-08-19T09:28:27.003Z,32.42
2022-08-19T09:29:09.960Z,31.60
2022-08-19T09:29:52.524Z,33.65
2022-08-19T09:30:42.110Z,36.22
2022-08-19T09:31:27.850Z,35.97
2022-08-19T09:32:26.385Z,30.38
2022-08-19T09:33:09.567Z,32.22
2022-08-19T09:33:52.926Z,28.85
2022-08-19T09:34:37.921Z,27.60
2022-08-19T09:35:29.813Z,29.55
2022-08-19T09:36:13.982Z,27.85
2022-08-19T09:37:06.159Z,29.58
2022-08-19T09:37:47.962Z,29.50
2022-08-19T09:38:29.787Z,33.53
2022-08-19T09:39:16.228Z,29.58
2022-08-19T09:39:58.874Z,29.20
2022-08-19T09:40:40.662Z,31.13
2022-08-19T09:41:25.232Z,27.83
2022-08-19T09:42:16.558Z,26.40
2022-08-19T09:43:13.318Z,23.77
2022-08-19T09:43:57.433Z,24.65
2022-08-19T09:44:40.942Z,24.63
2022-08-19T09:45:23.512Z,25.95